Ocean Celebrity — HOSZ — position and weather

sailwx.info

Track history (hours):
 
Tides and Currents Weather Stations Pressure Air Temp Water Temp Dewpoint Dewpoint Depression Visibility Wind Speed Wind Dir Waves Ship Positions

Ocean Celebrity

Last reported at 2017-Apr-25 06:38 UTC. Time now 2017-Apr-29 03:42 UTC.
Position N 38°50' E 118°13'.

Length 289 m; draft 18 m.

Type: Cargo ship. MMSI: 356712000.

Date/timePositionNaut miles runAvg speedWind from/ knotsBaromVisibWave heightAir tempDewpointWater temp
2017-Apr-25 06:38N 38°50' E 118°13'38 2.9
2017-Apr-24 17:39N 38°47' E 119°02'211.1
2017-Apr-24 17:26N 38°47' E 119°05'511.2
2017-Apr-24 17:00N 38°47' E 119°12'611.4
2017-Apr-24 16:30N 38°47' E 119°19'611.6
2017-Apr-24 16:00N 38°46' E 119°26'611.6
2017-Apr-24 15:30N 38°45' E 119°34'611.7
2017-Apr-24 15:00N 38°45' E 119°41'611.8
2017-Apr-24 14:30N 38°44' E 119°48'1212.0
2017-Apr-24 13:30N 38°43' E 120°04'612.2
2017-Apr-24 13:00N 38°42' E 120°11'912.2
2017-Apr-24 12:17N 38°42' E 120°23'311.9
2017-Apr-24 12:00N 38°42' E 120°27'1411.7
2017-Apr-24 10:46N 38°40' E 120°45'3011.2
2017-Apr-24 08:06N 38°27' E 121°20'311.3
2017-Apr-24 07:48N 38°26' E 121°24'411.6
2017-Apr-24 07:29N 38°25' E 121°29'611.7
2017-Apr-24 06:56N 38°22' E 121°36'611.7
2017-Apr-24 06:26N 38°20' E 121°43'  
Track history (hours):
 
Tides and Currents Weather Stations Pressure Air Temp Water Temp Dewpoint Dewpoint Depression Visibility Wind Speed Wind Dir Waves Ship Positions

Ocean Celebrity

Last reported at 2017-Apr-25 06:38 UTC. Time now 2017-Apr-29 03:42 UTC.
Position N 38°50' E 118°13'.

Length 289 m; draft 18 m.

Type: Cargo ship. MMSI: 356712000.

Date/timePositionNaut miles runAvg speedWind from/ knotsBaromVisibWave heightAir tempDewpointWater temp
2017-Apr-25 06:38N 38°50' E 118°13'38 2.9
2017-Apr-24 17:39N 38°47' E 119°02'211.1
2017-Apr-24 17:26N 38°47' E 119°05'511.2
2017-Apr-24 17:00N 38°47' E 119°12'611.4
2017-Apr-24 16:30N 38°47' E 119°19'611.6
2017-Apr-24 16:00N 38°46' E 119°26'611.6
2017-Apr-24 15:30N 38°45' E 119°34'611.7
2017-Apr-24 15:00N 38°45' E 119°41'611.8
2017-Apr-24 14:30N 38°44' E 119°48'1212.0
2017-Apr-24 13:30N 38°43' E 120°04'612.2
2017-Apr-24 13:00N 38°42' E 120°11'912.2
2017-Apr-24 12:17N 38°42' E 120°23'311.9
2017-Apr-24 12:00N 38°42' E 120°27'1411.7
2017-Apr-24 10:46N 38°40' E 120°45'3011.2
2017-Apr-24 08:06N 38°27' E 121°20'311.3
2017-Apr-24 07:48N 38°26' E 121°24'411.6
2017-Apr-24 07:29N 38°25' E 121°29'611.7
2017-Apr-24 06:56N 38°22' E 121°36'611.7
2017-Apr-24 06:26N 38°20' E 121°43'  

Dump ship's entire track history